Language selection

My Weather Profile Weather Topics  | 

Central Brevoort - northern half: Past 24 Hour Conditions

 

Mary's Harbour

05:30 PM NDT 29 June 2022
Disclaimer

This table is a summary of hourly weather conditions for the past 24 hours.
Please note that these observations might not always be representative of weather conditions over their associated marine area.

Date / Time
(NDT)
Wind(knots) Conditions Visibility(km) Pressure(kPa) Air tempC) Relative humidity(%) Dew pointC) Humidex
29 June 2022
17:30 SE 12 gust 19 Sunny 16 102.1 17 45 5 *
16:30 ESE 10 gust 16 Sunny 16 102.1 18 45 6 *
15:30 E 8 Sunny 16 102.2 17 50 7 *
14:30 ESE 9 Partly Cloudy 16 102.1 17 52 7 *
13:30 ESE 9 Cloudy 16 102.2 17 50 7 *
12:30 E 8 Mostly Cloudy 13 102.2 17 46 6 *
11:30 SE 7 Mostly Cloudy 16 102.1 17 49 6 *
10:30 ESE 4 Mostly Cloudy 16 102.1 16 50 5 *
9:30 E 6 Cloudy 16 102.1 15 54 6 *
8:30 N 3 Sunny 16 102.1 14 59 6 *
7:30 NNW 4 Mostly Cloudy 16 102.0 13 67 7 *
6:30 W 2 Cloudy 16 102.0 11 74 7 *
5:30 NW 3 Cloudy 16 101.9 11 77 7 *
4:30 calm Cloudy 16 101.8 10 82 8 *
3:30 N 5 Cloudy 16 101.7 10 84 7 *
2:30 NNW 3 Cloudy 16 101.7 9 89 8 *
1:30 ENE 3 Clear 13 101.6 9 92 7 *
0:30 NNE 6 Partly Cloudy 16 101.4 9 86 7 *
28 June 2022
23:30 NW 7 Mostly Cloudy 16 101.3 17 66 10 *
22:30 SW 12 gust 23 Mostly Cloudy 16 101.1 17 66 11 *
21:30 SW 14 gust 20 Sunny 16 101.1 19 59 11 *
20:30 SW 18 gust 23 Sunny 16 101.0 21 55 12 23
19:30 WSW 22 gust 33 Sunny 16 100.8 23 51 12 25
18:30 SW 18 gust 26 Sunny 16 100.8 22 55 13 25
17:30 WSW 19 gust 28 Sunny 16 100.7 23 54 13 26

Zoom-in to make a selection

Map of Atlantic - Labrador marine weather areas Kangiqsualujjuaq Airport Cape Kakkiviak Cape Kiglapait Cartwright Airport CFB Goose Bay Hopedale Mary's Harbour Nain Airport Makkovik Airport Saglek Tukialik Bay
Legend:
buoy Buoy
land station Land Station

Atlantic - Labrador Area

Another Region

What we are doing

Features

WeatherCAN app: set custom notifications

Learn how to set custom Air Quality Health Index notifications on the WeatherCAN app

Date modified: